Time;durP1;ratioP1;P1;durP2;ratioP2;P2;SDS_P1;SDS_P2;PMS_P1;PMS_P2;Temp;Humidity;BMP_temperature;BMP_pressure;BME280_temperature;BME280_humidity;BME280_pressure;Samples;Min_cycle;Max_cycle;Signal;HPM_P1;HPM_P2
2022/05/16 00:00:35;;;;;;;3.12;1.52;;;;;;;18.30;37.50;100463.55;2104184;91;25842;-85
2022/05/16 00:04:05;;;;;;;3.08;1.87;;;;;;;18.18;37.61;100466.25;2134819;89;26290;-85
2022/05/16 00:07:48;;;;;;;3.37;1.62;;;;;;;18.11;37.82;100465.41;2141326;90;26306;-85
2022/05/16 00:11:58;;;;;;;;;;;;;;;;;;;;;
2022/05/16 00:23:53;;;;;;;4.30;2.07;;;;;;;17.85;38.30;100476.12;2074539;92;25830;-86
2022/05/16 00:27:40;;;;;;;3.22;1.72;;;;;;;17.79;38.35;100480.55;1970425;97;25990;-85
2022/05/16 00:31:40;;;;;;;6.08;1.90;;;;;;;17.76;38.54;100481.44;1973624;97;26146;-84
2022/05/16 00:35:40;;;;;;;;;;;;;;;;;;;;;
2022/05/16 00:39:47;;;;;;;7.08;1.65;;;;;;;17.68;38.64;100478.80;1971987;97;25706;-87
2022/05/16 00:48:36;;;;;;;;;;;;;;;;;;;;;
2022/05/16 00:57:17;;;;;;;5.37;1.80;;;;;;;17.34;39.41;100491.18;1926629;99;26328;-83
2022/05/16 01:13:57;;;;;;;3.37;1.02;;;;;;;17.13;39.91;100493.88;1816611;105;26188;-82
2022/05/16 01:17:53;;;;;;;;;;;;;;;;;;;;;
2022/05/16 01:22:15;;;;;;;;;;;;;;;;;;;;;
2022/05/16 01:26:26;;;;;;;2.90;1.00;;;;;;;17.00;39.92;100495.63;1845267;105;25970;-85
2022/05/16 01:30:37;;;;;;;;;;;;;;;;;;;;;
2022/05/16 01:34:24;;;;;;;1.17;0.80;;;;;;;16.89;40.01;100503.55;1764197;105;26330;-85
2022/05/16 01:46:10;;;;;;;2.95;1.52;;;;;;;16.85;40.22;100506.19;1813747;106;25975;-85
2022/05/16 01:50:07;;;;;;;3.15;1.60;;;;;;;16.78;40.42;100507.94;1839140;105;25797;-84
2022/05/16 01:54:15;;;;;;;2.47;1.45;;;;;;;16.69;40.61;100511.84;1872844;102;26170;-85
2022/05/16 01:58:04;;;;;;;3.15;2.08;;;;;;;16.59;40.74;100508.77;1885897;102;25718;-84
2022/05/16 02:02:06;;;;;;;1.98;1.35;;;;;;;16.53;40.93;100509.62;1873817;101;26455;-84
2022/05/16 02:06:02;;;;;;;3.42;1.52;;;;;;;16.45;41.12;100506.13;1840888;103;26151;-86
2022/05/16 02:09:46;;;;;;;3.70;1.47;;;;;;;16.42;41.22;100511.37;1843856;100;25958;-84
2022/05/16 02:13:22;;;;;;;3.12;1.87;;;;;;;16.39;41.26;100515.31;1900256;99;26120;-85
2022/05/16 02:16:55;;;;;;;2.22;1.32;;;;;;;16.32;41.41;100518.81;1846764;103;25994;-85
2022/05/16 02:20:46;;;;;;;3.00;1.20;;;;;;;16.27;41.59;100526.27;1894279;100;26088;-84
2022/05/16 02:32:15;;;;;;;2.35;1.70;;;;;;;16.12;41.79;100528.83;1967593;97;25824;-87
2022/05/16 02:35:51;;;;;;;2.75;1.30;;;;;;;16.10;41.93;100537.58;1949976;98;25855;-86
2022/05/16 02:39:25;;;;;;;3.83;1.50;;;;;;;16.08;42.04;100532.33;1959746;99;25835;-86
2022/05/16 02:42:47;;;;;;;3.27;1.22;;;;;;;16.04;42.22;100535.39;1987721;96;26241;-85
2022/05/16 02:47:01;;;;;;;5.60;1.77;;;;;;;15.99;42.37;100534.92;2015284;94;25812;-84
2022/05/16 02:50:55;;;;;;;3.00;1.30;;;;;;;15.96;42.50;100537.12;2011232;95;26273;-85
2022/05/16 02:54:33;;;;;;;3.00;1.35;;;;;;;15.93;42.67;100535.80;2009736;95;25757;-85
2022/05/16 02:58:13;;;;;;;6.62;1.50;;;;;;;15.87;42.82;100537.08;1951421;98;26303;-86
2022/05/16 03:09:51;;;;;;;3.72;1.52;;;;;;;15.87;43.30;100531.81;1948805;95;25886;-86
2022/05/16 03:13:50;;;;;;;3.02;1.60;;;;;;;15.85;43.35;100537.48;1948754;98;25869;-88
2022/05/16 03:17:32;;;;;;;2.75;1.92;;;;;;;15.83;43.58;100530.05;1914543;100;25929;-89
2022/05/16 03:21:35;;;;;;;;;;;;;;;;;;;;;
2022/05/16 03:25:35;;;;;;;6.78;2.95;;;;;;;15.78;43.97;100533.08;1947252;99;26151;-90
2022/05/16 03:29:52;;;;;;;5.80;3.83;;;;;;;15.75;44.08;100537.00;1937960;98;26717;-91
2022/05/16 03:40:41;;;;;;;5.97;5.37;;;;;;;15.72;44.22;100536.98;1915289;99;26177;-88
2022/05/16 03:41:57;;;;;;;8.05;5.35;;;;;;;15.73;44.31;100538.33;1969842;93;25817;-88
2022/05/16 03:49:18;;;;;;;6.62;5.25;;;;;;;15.80;44.51;100532.22;2351383;81;25925;-88
2022/05/16 03:52:58;;;;;;;8.65;5.33;;;;;;;15.84;44.46;100541.44;2248717;85;25691;-89
2022/05/16 03:57:23;;;;;;;;;;;;;;;;;;;;;
2022/05/16 04:01:31;;;;;;;11.22;4.67;;;;;;;15.94;44.42;100545.87;2221645;86;26095;-87
2022/05/16 04:05:15;;;;;;;9.55;4.00;;;;;;;15.99;44.42;100551.56;2242118;86;25969;-87
2022/05/16 04:09:00;;;;;;;;;;;;;;;;;;;;;
2022/05/16 04:16:37;;;;;;;4.53;3.05;;;;;;;16.21;44.18;100562.19;2103030;91;26401;-88
2022/05/16 04:20:25;;;;;;;5.20;3.37;;;;;;;16.29;44.05;100564.39;2109542;91;25637;-88
2022/05/16 04:24:37;;;;;;;6.67;3.22;;;;;;;16.35;43.96;100563.11;2113820;91;25935;-86
2022/05/16 04:28:24;;;;;;;4.95;4.00;;;;;;;16.45;43.79;100574.09;2029330;94;26007;-86
2022/05/16 04:32:21;;;;;;;9.00;4.22;;;;;;;16.57;43.65;100571.05;2159712;88;26108;-89
2022/05/16 04:40:01;;;;;;;4.55;3.05;;;;;;;16.92;43.27;100572.02;2170689;87;25873;-88
2022/05/16 04:44:13;;;;;;;4.87;2.90;;;;;;;17.02;43.08;100575.54;2098080;91;25881;-90
2022/05/16 04:47:55;;;;;;;5.70;2.80;;;;;;;17.12;42.76;100581.69;2104874;91;25906;-90
2022/05/16 04:51:35;;;;;;;3.98;2.27;;;;;;;17.21;42.84;100576.40;2087643;90;26180;-87
2022/05/16 04:58:25;;;;;;;3.42;2.02;;;;;;;17.33;42.61;100580.35;2254955;85;25952;-89
2022/05/16 05:02:33;;;;;;;5.42;2.62;;;;;;;17.43;42.66;100570.23;2232353;85;26092;-88
2022/05/16 05:06:29;;;;;;;2.08;1.87;;;;;;;17.56;42.48;100571.09;2253461;85;25453;-87
2022/05/16 05:18:47;;;;;;;4.15;1.60;;;;;;;17.81;42.81;100577.21;2042447;94;26004;-88
2022/05/16 05:22:39;;;;;;;6.12;2.20;;;;;;;17.89;42.96;100580.72;2012067;96;26192;-84
2022/05/16 05:26:42;;;;;;;3.83;1.98;;;;;;;18.00;43.31;100586.41;2023377;95;25776;-85
2022/05/16 05:40:09;;;;;;;5.53;2.12;;;;;;;18.24;42.84;100573.09;1940826;100;26123;-80
2022/05/16 05:43:56;;;;;;;3.17;1.25;;;;;;;18.47;43.01;100575.63;1989088;96;25822;-87
2022/05/16 05:47:59;;;;;;;;;;;;;;;;;;;;;
2022/05/16 05:52:17;;;;;;;3.58;1.52;;;;;;;18.67;42.39;100576.83;2046599;94;25833;-82
